EHGG

Eelde Airport

Groningen, The Netherlands
METAR EHGG 191955Z AUTO 22002KT 9999 OVC045 18/15 Q1022 NOSIG
Observed Flight Rules
Jun-19 @ 19:55 UTC (24 minutes ago) Visual Flight Rules
Wind Visibility Clouds
220° at 2 knots 10,000+ meters
  • Overcast at 4,500' AGL
Temperatures Readings
Current 18°C / 64°F
Dewpoint 15°C / 59°F
Humidity 83%
Altimeter 30.18" Hg
Pressure 1022 hPa
Elevation 4
METAR EHGG 191955Z AUTO 22002KT 9999 OVC045 18/15 Q1022 NOSIG
Observed Flight Rules
Jun-19 @ 19:55 UTC
(24 minutes ago)
VFR
Wind Visibility
220° at 2 knots 10,000+ meters
Clouds
  • Overcast at 4,500' AGL
Temperature Dewpoint
18°C / 64°F 15°C / 59°F
Humidity Altimeter Pressure
83% 30.18" Hg 1022 hPa